Portada
METAR-TAF:

METAR-TAF

Aeroports :

Southampton, Anglaterra

latitud: 50-54N, longitud: 001-24W, altitud: 9 m

Observació

L'informe es va fer fa 7 hores i 30 minuts, a les 16:50 UTC
Vent 9 kt del Est/Nord-Est, variant entre Nord/Nord-Est i Est/Sud-Est
Temperatura 14°C
Humitat 51%
Pressió 1021 hPa
Visibilitat 10 km o més
sense núvols per sota de 1500 mi sense presència de cumulonimbus.

METAR: EGHI 211650Z 07009KT 030V110 CAVOK 14/04 Q1021

Hora: 01:20 (00:20 UTC)

Pronòstic

L'informe es va fer fa 7 hores i 25 minuts, a les 16:55 UTC
Pronòstic vàlid del 21 a les 18 UTC al 21 a les 22 UTC
Vent 8 kt del Est/Nord-Est
Visibilitat 10 km o més
Escasses núvols a una alçada de 4500 ft

TAF: EGHI 211655Z 2118/2122 06008KT 9999 FEW045

Observacions i pronòstics meteorològics de més de 4000 aeroports (METAR i TAF).

Les estacions disponibles són els punts grocs i vermells al mapa.

Posi el ratolí al punt desitjat per veure el nom de l'estació.

Feu clic per veure les observacions i els pronòstics meteorològics.

Per canviar el mapa: feu clic els botons verds amb una creu de color negre per apropar; al botó verd amb un guió per allunyar la imatge; o en les fletxes verdes per a mapes adjacents.


METAR-TAF: